Detroit, MI (48201)

6:14 PM EDT on April 27, 2015 (GMT -0400)
University | | Change Station
CLOSE
Current Station
Personal Weather Station
Location: Windsor, ONTARIO
Elevation: 607 ft
Nearby Weather Stations

Elev 607 ft 42.31 °N, 83.06 °W | Updated 43 seconds ago

Overcast
Overcast
51.8 °F
Feels Like 51.8 °F
N
2.7
Wind Variable Wind from North

Today
High -- | Low -- °F
--% Chance of Precip.
Yesterday
High -- | Low -- °F
Precip. -- in
6:33 AM 8:27 PM
Waxing Gibbous, 68% visible
Pressure 30.05 in
Visibility 10.0 miles
Clouds Few 3900 ft
Overcast 4900 ft
Dew Point 37 °F
Humidity 57%
Rainfall 0.00 in
Snow Depth Not available.
UV 1 out of 12
Pollen 6.60 out of 12
Air Quality Not available.
Flu Activity Regional
METAR KDET 272153Z 03010G17KT 10SM FEW039 OVC049 11/01 A3004 RMK AO2 SLP174 T01060011

More Conditions Fewer Conditions

Pressure 30.05 in
Visibility 10.0 miles
Clouds Few 3900 ft
Overcast 4900 ft
Dew Point 37 °F
Humidity 57%
Rainfall 0.00 in
Snow Depth Not available.
UV 1 out of 12
Pollen 6.60 out of 12
Air Quality Not available.
Flu Activity Regional
METAR KDET 272153Z 03010G17KT 10SM FEW039 OVC049 11/01 A3004 RMK AO2 SLP174 T01060011

More Conditions Fewer Conditions

10-Day Weather Forecast

Almanac

Astronomy

Apr. 27, 2015 Rise Set
Actual Time
Civil Twilight
Nautical Twilight
Astronomical Twilight
Moon
Length of Visible Light
Length of Day
Tomorrow will be .
, % of the Moon is Illuminated

Today's Extremes

State Highs State Lows

Community

WunderPhotos

Upload Photos

1,817,442 photos uploaded!

WunderBlogs® & News

Nearby

Air Quality

  Air Quality AQ Index Pollutant
Not available.

Snow Depth

Station Depth Elevation

Earthquake Activity

City Distance Mag. Time & Date
Minimum magnitude displayed is 2.5.

Coastal Water Temperatures

Place Temperature

Stations

Nearby Weather Stations

Station Location Temp. Windchill Dew Point Humidity Wind Precip. Elev Updated Type